Time;durP1;ratioP1;P1;durP2;ratioP2;P2;SDS_P1;SDS_P2;PMS_P1;PMS_P2;Temp;Humidity;BMP_temperature;BMP_pressure;BME280_temperature;BME280_humidity;BME280_pressure;Samples;Min_cycle;Max_cycle;Signal;HPM_P1;HPM_P2
2023/07/11 00:02:12;;;;;;;;;;;;;;;27.86;47.78;101352.44;5002463;28;20000;-87
2023/07/11 00:04:38;;;;;;;;;;;;;;;27.82;48.06;101357.75;5025904;28;20371;-85
2023/07/11 00:07:03;;;;;;;;;;;;;;;27.83;48.01;101355.97;5036784;28;19913;-85
2023/07/11 00:09:28;;;;;;;;;;;;;;;27.81;47.92;101352.41;5018721;28;20012;-86
2023/07/11 00:11:54;;;;;;;;;;;;;;;27.81;48.03;101353.31;5010177;28;20398;-86
2023/07/11 00:14:20;;;;;;;;;;;;;;;27.81;47.85;101355.09;5026527;28;20381;-86
2023/07/11 00:16:45;;;;;;;;;;;;;;;27.81;48.18;101347.03;5013818;28;20325;-85
2023/07/11 00:19:11;;;;;;;;;;;;;;;27.81;48.26;101349.72;5029605;28;19923;-85
2023/07/11 00:21:36;;;;;;;;;;;;;;;27.80;47.96;101350.63;5013823;28;20055;-86
2023/07/11 00:24:05;;;;;;;;;;;;;;;27.80;47.79;101343.47;5031799;28;19961;-85
2023/07/11 00:26:31;;;;;;;;;;;;;;;27.79;48.03;101339.03;5012047;28;20314;-85
2023/07/11 00:28:59;;;;;;;;;;;;;;;27.78;48.00;101347.06;5006993;28;19917;-85
2023/07/11 00:31:24;;;;;;;;;;;;;;;27.78;47.76;101344.38;5027372;28;19924;-85
2023/07/11 00:33:49;;;;;;;;;;;;;;;27.78;47.78;101347.06;5030264;28;19917;-85
2023/07/11 00:36:15;;;;;;;;;;;;;;;27.77;48.12;101342.59;5030047;28;19953;-85
2023/07/11 00:41:55;;;;;;;;;;;;;;;27.77;47.72;101339.91;4970064;28;19965;-85
2023/07/11 00:44:38;;;;;;;;;;;;;;;27.75;48.02;101342.63;4973548;28;19985;-85
2023/07/11 00:47:07;;;;;;;;;;;;;;;27.74;48.13;101335.47;4946541;28;20013;-85
2023/07/11 00:52:47;;;;;;;;;;;;;;;27.76;47.76;101338.16;4970594;28;19939;-86
2023/07/11 00:55:40;;;;;;;;;;;;;;;;;;;;;
2023/07/11 00:58:09;;;;;;;;;;;;;;;27.72;47.79;101333.69;4970665;28;19918;-87
2023/07/11 01:00:55;;;;;;;;;;;;;;;27.72;47.69;101331.03;4947764;28;19930;-86
2023/07/11 01:03:21;;;;;;;;;;;;;;;27.71;47.95;101334.63;4967110;28;19922;-85
2023/07/11 01:08:50;;;;;;;;;;;;;;;27.68;47.85;101319.41;5016639;28;19924;-85
2023/07/11 01:11:16;;;;;;;;;;;;;;;27.67;47.95;101319.44;5003622;28;19924;-88
2023/07/11 01:13:42;;;;;;;;;;;;;;;27.69;47.81;101315.84;5008832;28;19921;-84
2023/07/11 01:16:07;;;;;;;;;;;;;;;27.68;47.70;101322.09;5015858;28;19917;-86
2023/07/11 01:18:33;;;;;;;;;;;;;;;27.69;47.74;101326.56;5009999;28;19925;-86
2023/07/11 01:20:58;;;;;;;;;;;;;;;27.69;47.68;101333.75;5026076;28;20055;-85
2023/07/11 01:23:24;;;;;;;;;;;;;;;27.68;47.80;101323.88;5024733;28;19921;-85
2023/07/11 01:25:49;;;;;;;;;;;;;;;27.67;47.83;101331.06;5026446;28;19991;-84
2023/07/11 01:28:30;;;;;;;;;;;;;;;27.67;47.58;101320.31;4996648;28;19921;-84
2023/07/11 01:30:55;;;;;;;;;;;;;;;27.67;47.69;101324.81;5034640;28;19923;-84
2023/07/11 01:33:24;;;;;;;;;;;;;;;27.66;47.49;101323.00;5028520;28;19921;-84
2023/07/11 01:35:51;;;;;;;;;;;;;;;27.68;47.66;101323.88;5011285;28;19917;-83
2023/07/11 01:38:17;;;;;;;;;;;;;;;27.67;47.51;101319.44;5013411;28;19952;-84
2023/07/11 01:40:42;;;;;;;;;;;;;;;27.64;47.72;101309.59;5010749;28;19975;-84
2023/07/11 01:43:08;;;;;;;;;;;;;;;27.62;47.67;101316.78;5005878;28;20025;-84
2023/07/11 01:45:33;;;;;;;;;;;;;;;27.61;47.60;101315.88;5031057;28;20025;-84
2023/07/11 01:48:02;;;;;;;;;;;;;;;27.62;47.67;101314.09;5031231;28;19918;-85
2023/07/11 01:50:27;;;;;;;;;;;;;;;27.60;47.73;101323.94;5003246;28;19920;-84
2023/07/11 01:52:52;;;;;;;;;;;;;;;27.59;47.34;101319.50;5034907;28;19917;-85
2023/07/11 01:55:18;;;;;;;;;;;;;;;27.60;47.31;101318.56;5012061;28;19951;-84
2023/07/11 01:57:43;;;;;;;;;;;;;;;27.58;47.75;101310.56;5028644;28;21326;-85
2023/07/11 02:00:09;;;;;;;;;;;;;;;27.58;47.62;101315.00;5021338;28;19925;-85
2023/07/11 02:02:35;;;;;;;;;;;;;;;27.54;47.74;101308.81;5025601;28;19921;-85
2023/07/11 02:05:00;;;;;;;;;;;;;;;27.54;47.55;101310.59;5024964;28;19918;-85
2023/07/11 02:07:25;;;;;;;;;;;;;;;27.54;47.50;101308.81;5020545;28;19945;-84
2023/07/11 02:09:51;;;;;;;;;;;;;;;27.55;47.50;101309.69;5013945;28;19923;-84
2023/07/11 02:12:16;;;;;;;;;;;;;;;27.55;47.74;101301.63;5031043;28;20423;-85
2023/07/11 02:14:42;;;;;;;;;;;;;;;27.52;47.78;101302.56;5011819;28;20397;-85
2023/07/11 02:17:08;;;;;;;;;;;;;;;27.54;47.88;101307.91;5030682;28;19924;-84
2023/07/11 02:19:34;;;;;;;;;;;;;;;27.52;47.77;101307.91;5027504;28;20062;-84
2023/07/11 02:21:59;;;;;;;;;;;;;;;27.51;47.85;101303.44;5012248;28;20012;-85
2023/07/11 02:24:25;;;;;;;;;;;;;;;27.51;47.88;101305.25;5012313;28;20321;-86
2023/07/11 02:26:52;;;;;;;;;;;;;;;27.50;47.87;101301.69;5007471;28;19917;-84
2023/07/11 02:29:17;;;;;;;;;;;;;;;27.49;47.67;101309.72;5006093;28;19917;-84
2023/07/11 02:31:42;;;;;;;;;;;;;;;27.49;47.85;101299.88;5015728;28;20318;-84
2023/07/11 02:34:08;;;;;;;;;;;;;;;27.49;47.96;101302.56;5010082;28;19937;-85
2023/07/11 02:36:33;;;;;;;;;;;;;;;27.50;47.68;101293.63;5015124;28;19925;-85
2023/07/11 02:38:59;;;;;;;;;;;;;;;27.50;47.66;101298.09;5027221;28;19963;-85
2023/07/11 02:41:25;;;;;;;;;;;;;;;27.49;47.89;101301.69;5015636;28;19925;-85
2023/07/11 02:43:52;;;;;;;;;;;;;;;27.47;47.82;101308.84;5015741;28;20306;-85
2023/07/11 02:46:18;;;;;;;;;;;;;;;27.48;47.62;101302.59;5031288;28;19956;-84
2023/07/11 02:48:44;;;;;;;;;;;;;;;27.47;47.83;101300.78;5029326;28;19963;-84
2023/07/11 02:51:10;;;;;;;;;;;;;;;27.46;47.60;101301.72;5043923;28;20346;-85
2023/07/11 02:53:35;;;;;;;;;;;;;;;27.45;47.72;101310.66;5014044;28;19921;-84
2023/07/11 02:56:00;;;;;;;;;;;;;;;27.44;47.64;101308.88;5030116;28;19924;-84
2023/07/11 02:58:26;;;;;;;;;;;;;;;27.43;47.76;101302.59;5034599;28;19920;-83
2023/07/11 03:00:54;;;;;;;;;;;;;;;27.43;47.77;101307.97;5036129;28;20386;-83
2023/07/11 03:03:19;;;;;;;;;;;;;;;27.41;47.71;101302.63;5022002;28;20004;-83
2023/07/11 03:05:45;;;;;;;;;;;;;;;27.42;47.58;101300.84;5025899;28;20020;-84
2023/07/11 03:08:11;;;;;;;;;;;;;;;27.42;47.91;101296.34;5035405;28;19924;-84
2023/07/11 03:10:36;;;;;;;;;;;;;;;27.43;47.60;101305.28;5023002;28;20004;-84
2023/07/11 03:13:02;;;;;;;;;;;;;;;27.41;47.67;101299.97;5022203;28;19979;-84
2023/07/11 03:15:27;;;;;;;;;;;;;;;27.42;47.50;101306.19;5028667;28;19921;-84
2023/07/11 03:17:53;;;;;;;;;;;;;;;27.42;47.52;101306.19;5014231;28;19917;-84
2023/07/11 03:20:18;;;;;;;;;;;;;;;27.40;47.46;101300.84;5031928;28;19921;-85
2023/07/11 03:22:44;;;;;;;;;;;;;;;27.40;47.56;101303.53;5003131;28;20318;-85
2023/07/11 03:25:09;;;;;;;;;;;;;;;27.38;47.84;101297.28;5029392;28;19921;-85
2023/07/11 03:27:35;;;;;;;;;;;;;;;27.37;47.68;101311.59;5022959;28;19960;-87
2023/07/11 03:30:09;;;;;;;;;;;;;;;27.39;47.84;101308.91;4996191;28;19972;-85
2023/07/11 03:32:37;;;;;;;;;;;;;;;27.36;47.89;101315.16;5005854;28;19917;-87
2023/07/11 03:35:15;;;;;;;;;;;;;;;27.37;47.94;101310.72;4991898;28;20053;-84
2023/07/11 03:37:40;;;;;;;;;;;;;;;27.36;47.86;101317.84;5014494;28;19960;-85
2023/07/11 03:40:34;;;;;;;;;;;;;;;27.36;47.63;101320.53;5031378;28;19945;-85
2023/07/11 03:46:35;;;;;;;;;;;;;;;27.34;48.02;101316.97;5003626;28;19939;-86
2023/07/11 03:49:02;;;;;;;;;;;;;;;27.34;47.86;101316.97;5029380;28;20309;-82
2023/07/11 03:51:43;;;;;;;;;;;;;;;27.32;47.99;101325.94;5012419;28;19974;-84
2023/07/11 03:54:08;;;;;;;;;;;;;;;27.30;47.75;101317.88;5011119;28;19964;-82
2023/07/11 03:56:39;;;;;;;;;;;;;;;27.29;47.98;101326.84;5012941;28;19952;-84
2023/07/11 03:59:06;;;;;;;;;;;;;;;27.30;47.67;101331.31;5025082;28;20390;-83
2023/07/11 04:01:32;;;;;;;;;;;;;;;27.30;47.70;101328.63;5027579;28;19956;-83
2023/07/11 04:04:02;;;;;;;;;;;;;;;27.32;47.73;101333.97;5030270;28;19964;-83
2023/07/11 04:06:56;;;;;;;;;;;;;;;27.32;47.79;101325.94;5012664;28;20383;-84
2023/07/11 04:09:28;;;;;;;;;;;;;;;27.31;47.83;101333.09;5026972;28;19974;-83
2023/07/11 04:11:54;;;;;;;;;;;;;;;27.31;47.77;101333.09;5026871;28;20348;-81
2023/07/11 04:14:19;;;;;;;;;;;;;;;27.32;48.04;101336.66;5009410;28;19917;-81
2023/07/11 04:16:44;;;;;;;;;;;;;;;27.31;47.74;101335.78;5029935;28;20333;-83
2023/07/11 04:19:12;;;;;;;;;;;;;;;27.30;47.87;101338.47;5029802;28;20393;-83
2023/07/11 04:21:42;;;;;;;;;;;;;;;27.31;47.90;101346.50;5010738;28;19949;-84
2023/07/11 04:24:07;;;;;;;;;;;;;;;27.30;47.98;101339.34;5030909;28;19928;-84
2023/07/11 04:26:55;;;;;;;;;;;;;;;27.30;48.06;101339.34;5012725;28;19917;-85
2023/07/11 04:29:21;;;;;;;;;;;;;;;27.30;48.02;101341.16;5026300;28;19924;-84
2023/07/11 04:31:46;;;;;;;;;;;;;;;27.28;48.00;101351.00;5014474;28;20298;-83
2023/07/11 04:34:11;;;;;;;;;;;;;;;27.26;47.87;101345.63;5028521;28;19921;-84
2023/07/11 04:36:38;;;;;;;;;;;;;;;27.25;48.15;101348.34;5010947;28;20015;-82
2023/07/11 04:39:03;;;;;;;;;;;;;;;27.25;47.77;101351.91;5013098;28;19916;-81
2023/07/11 04:41:29;;;;;;;;;;;;;;;27.25;48.04;101357.25;5028137;28;19921;-83
2023/07/11 04:43:54;;;;;;;;;;;;;;;27.25;48.01;101356.38;5032427;28;20491;-81
2023/07/11 04:46:21;;;;;;;;;;;;;;;27.22;48.16;101351.94;5027311;28;20390;-82
2023/07/11 04:48:46;;;;;;;;;;;;;;;27.23;48.19;101352.81;5024047;28;19913;-81
2023/07/11 04:51:12;;;;;;;;;;;;;;;27.23;48.02;101358.19;5012256;28;19983;-81
2023/07/11 04:53:38;;;;;;;;;;;;;;;27.21;48.08;101359.03;5026396;28;20313;-82
2023/07/11 04:56:05;;;;;;;;;;;;;;;27.19;48.34;101360.81;5025948;28;19947;-82
2023/07/11 04:58:31;;;;;;;;;;;;;;;27.20;47.93;101368.00;5012203;28;19972;-82
2023/07/11 05:01:04;;;;;;;;;;;;;;;27.17;48.18;101365.31;5003926;28;19921;-81
2023/07/11 05:03:29;;;;;;;;;;;;;;;27.17;47.98;101373.34;5021532;28;19917;-82
2023/07/11 05:05:55;;;;;;;;;;;;;;;27.17;48.18;101367.09;5024460;28;20317;-82
2023/07/11 05:08:20;;;;;;;;;;;;;;;27.17;47.93;101365.31;5031333;28;19943;-82
2023/07/11 05:10:52;;;;;;;;;;;;;;;27.16;48.03;101366.22;5028245;28;19932;-82
2023/07/11 05:13:18;;;;;;;;;;;;;;;27.15;47.93;101372.47;5008273;28;20315;-84
2023/07/11 05:15:44;;;;;;;;;;;;;;;27.15;48.15;101372.47;5028043;28;19947;-82
2023/07/11 05:18:09;;;;;;;;;;;;;;;27.14;48.09;101365.34;5004870;28;19943;-80
2023/07/11 05:20:34;;;;;;;;;;;;;;;27.15;47.87;101372.47;4996909;28;19983;-82
2023/07/11 05:23:00;;;;;;;;;;;;;;;27.14;48.01;101362.66;5007099;28;20322;-83
2023/07/11 05:25:25;;;;;;;;;;;;;;;27.15;48.02;101369.78;5014124;28;20020;-82
2023/07/11 05:27:51;;;;;;;;;;;;;;;27.15;48.20;101363.53;5006443;28;20414;-82
2023/07/11 05:30:16;;;;;;;;;;;;;;;27.13;47.82;101360.84;4998786;28;19976;-82
2023/07/11 05:32:41;;;;;;;;;;;;;;;27.12;48.07;101358.22;4992364;28;20342;-82
2023/07/11 05:35:07;;;;;;;;;;;;;;;27.11;47.90;101365.34;5012449;28;19918;-82
2023/07/11 05:37:32;;;;;;;;;;;;;;;27.12;47.86;101364.44;5013735;28;19921;-84
2023/07/11 05:39:58;;;;;;;;;;;;;;;27.14;47.76;101362.66;5007986;28;19913;-83
2023/07/11 05:42:25;;;;;;;;;;;;;;;27.15;48.05;101361.75;5006592;28;19925;-85
2023/07/11 05:44:51;;;;;;;;;;;;;;;27.13;48.00;101373.38;4994185;28;19917;-84
2023/07/11 05:47:27;;;;;;;;;;;;;;;27.13;47.85;101363.53;5003788;28;20029;-84
2023/07/11 05:49:53;;;;;;;;;;;;;;;27.14;47.97;101370.69;5021353;28;20414;-84
2023/07/11 05:52:18;;;;;;;;;;;;;;;27.16;47.63;101368.03;5009201;28;19948;-84
2023/07/11 05:54:44;;;;;;;;;;;;;;;27.15;47.80;101366.22;5008804;28;19918;-85
2023/07/11 05:57:12;;;;;;;;;;;;;;;27.17;47.85;101362.63;4996649;28;19921;-83
2023/07/11 05:59:39;;;;;;;;;;;;;;;27.14;47.92;101362.66;4995243;28;20291;-84
2023/07/11 06:02:05;;;;;;;;;;;;;;;27.16;47.82;101358.19;4991910;28;19917;-85
2023/07/11 06:04:31;;;;;;;;;;;;;;;27.17;47.86;101368.00;5013675;28;19932;-82
2023/07/11 06:06:56;;;;;;;;;;;;;;;27.12;48.09;101369.81;4999309;28;19921;-83
2023/07/11 06:09:21;;;;;;;;;;;;;;;27.14;47.85;101368.03;5016655;28;19925;-83
2023/07/11 06:11:47;;;;;;;;;;;;;;;27.16;47.64;101376.06;5018575;28;19921;-82
2023/07/11 06:14:13;;;;;;;;;;;;;;;27.17;47.52;101380.50;4992056;28;20402;-83
2023/07/11 06:16:39;;;;;;;;;;;;;;;27.18;47.51;101363.53;5009827;28;19968;-83
2023/07/11 06:19:07;;;;;;;;;;;;;;;27.17;47.63;101368.00;5003372;28;19968;-84
2023/07/11 06:21:43;;;;;;;;;;;;;;;27.17;47.69;101370.66;4979295;28;19925;-84
2023/07/11 06:24:09;;;;;;;;;;;;;;;27.17;47.71;101368.00;5008888;28;19984;-84
2023/07/11 06:26:34;;;;;;;;;;;;;;;27.19;47.70;101371.56;5002095;28;19926;-82
2023/07/11 06:29:00;;;;;;;;;;;;;;;27.17;47.83;101362.63;4990718;28;19964;-82
2023/07/11 06:31:28;;;;;;;;;;;;;;;27.20;47.68;101370.69;5013006;28;20012;-83
2023/07/11 06:33:53;;;;;;;;;;;;;;;27.18;47.55;101372.47;5024241;28;19970;-83
2023/07/11 06:36:19;;;;;;;;;;;;;;;27.19;47.67;101365.31;4998987;28;19918;-83
2023/07/11 06:38:44;;;;;;;;;;;;;;;27.17;47.79;101368.00;4996575;28;19967;-83
2023/07/11 06:41:10;;;;;;;;;;;;;;;27.23;47.60;101369.78;4995905;28;20004;-83
2023/07/11 06:46:28;;;;;;;;;;;;;;;27.19;47.80;101360.81;5012900;28;19921;-83
2023/07/11 06:48:54;;;;;;;;;;;;;;;27.20;47.78;101362.63;5010300;28;20302;-83
2023/07/11 06:51:23;;;;;;;;;;;;;;;27.24;47.54;101365.31;5021883;28;19920;-83
2023/07/11 06:53:49;;;;;;;;;;;;;;;27.24;47.73;101365.31;4999552;28;19922;-83
2023/07/11 06:56:14;;;;;;;;;;;;;;;27.25;47.60;101367.09;4995262;28;19920;-84
2023/07/11 06:58:44;;;;;;;;;;;;;;;27.25;47.84;101364.44;5009997;28;19918;-82
2023/07/11 07:01:23;;;;;;;;;;;;;;;27.26;47.82;101368.88;5019213;28;19921;-82
2023/07/11 07:03:52;;;;;;;;;;;;;;;27.26;47.58;101372.44;5010631;28;19922;-84
2023/07/11 07:06:19;;;;;;;;;;;;;;;27.29;47.93;101363.50;4993196;28;19928;-83
2023/07/11 07:08:45;;;;;;;;;;;;;;;27.28;47.53;101367.97;4986993;28;19921;-83
2023/07/11 07:11:10;;;;;;;;;;;;;;;27.27;47.67;101366.19;4994794;28;19913;-83
2023/07/11 07:14:05;;;;;;;;;;;;;;;27.28;47.65;101359.91;5008218;28;19964;-85
2023/07/11 07:16:41;;;;;;;;;;;;;;;27.29;47.93;101360.84;4982601;28;20310;-84
2023/07/11 07:19:07;;;;;;;;;;;;;;;27.31;47.68;101359.91;4999787;28;19918;-83
2023/07/11 07:21:37;;;;;;;;;;;;;;;27.32;47.71;101360.81;4993584;28;19987;-82
2023/07/11 07:24:02;;;;;;;;;;;;;;;27.34;47.91;101361.69;4997925;28;19965;-82
2023/07/11 07:26:28;;;;;;;;;;;;;;;27.34;47.92;101364.38;5001780;28;20409;-81
2023/07/11 07:28:57;;;;;;;;;;;;;;;27.32;47.99;101360.81;4996640;28;19917;-83
2023/07/11 07:31:25;;;;;;;;;;;;;;;27.35;48.00;101366.16;4996602;28;20401;-82
2023/07/11 07:33:53;;;;;;;;;;;;;;;27.32;47.84;101367.03;4993643;28;19914;-82
2023/07/11 07:36:19;;;;;;;;;;;;;;;27.37;48.24;101369.72;5009865;28;19919;-81
2023/07/11 07:38:48;;;;;;;;;;;;;;;27.36;48.19;101367.94;4976467;28;19913;-81
2023/07/11 07:41:13;;;;;;;;;;;;;;;27.36;48.28;101367.94;5004149;28;19949;-80
2023/07/11 07:43:44;;;;;;;;;;;;;;;27.37;48.32;101364.38;5009432;28;20055;-82
2023/07/11 07:46:11;;;;;;;;;;;;;;;27.37;48.17;101364.38;5003571;28;20414;-81
2023/07/11 07:48:37;;;;;;;;;;;;;;;27.36;48.53;101367.94;4997942;28;19952;-80
2023/07/11 07:51:03;;;;;;;;;;;;;;;27.35;48.89;101363.47;4995357;28;19989;-82
2023/07/11 07:53:29;;;;;;;;;;;;;;;27.38;48.94;101360.78;4995563;28;19921;-82
2023/07/11 07:55:55;;;;;;;;;;;;;;;27.37;48.65;101367.94;5010163;28;19914;-82
2023/07/11 07:58:31;;;;;;;;;;;;;;;27.39;48.90;101359.88;4995272;28;19944;-82
2023/07/11 08:00:56;;;;;;;;;;;;;;;27.38;48.79;101361.66;4996312;28;19917;-82
2023/07/11 08:03:22;;;;;;;;;;;;;;;27.37;48.71;101361.69;5001716;28;19925;-82
2023/07/11 08:05:47;;;;;;;;;;;;;;;27.39;48.48;101362.56;5001719;28;20599;-82
2023/07/11 08:08:15;;;;;;;;;;;;;;;27.41;48.36;101361.66;5003355;28;19996;-81
2023/07/11 08:10:40;;;;;;;;;;;;;;;27.39;48.68;101360.75;4991632;28;19997;-82
2023/07/11 08:13:06;;;;;;;;;;;;;;;27.40;48.52;101354.47;5012342;28;20008;-81
2023/07/11 08:15:41;;;;;;;;;;;;;;;27.40;48.62;101353.59;5004112;28;19913;-82
2023/07/11 08:18:06;;;;;;;;;;;;;;;27.40;48.60;101356.28;4999634;28;20012;-81
2023/07/11 08:20:32;;;;;;;;;;;;;;;27.40;48.95;101353.59;4999770;28;20004;-82
2023/07/11 08:22:57;;;;;;;;;;;;;;;27.40;48.99;101350.91;5011158;28;19979;-81
2023/07/11 08:25:25;;;;;;;;;;;;;;;27.42;49.15;101355.38;4990882;28;20198;-82
2023/07/11 08:27:51;;;;;;;;;;;;;;;27.44;48.79;101352.69;4998599;28;20377;-82
2023/07/11 08:30:16;;;;;;;;;;;;;;;27.43;49.20;101353.56;4977764;28;19914;-81
2023/07/11 08:32:42;;;;;;;;;;;;;;;27.44;48.83;101354.47;4999406;28;20473;-82
2023/07/11 08:35:07;;;;;;;;;;;;;;;27.44;48.97;101360.72;4982412;28;20499;-81
2023/07/11 08:37:33;;;;;;;;;;;;;;;27.45;48.62;101351.75;5010422;28;19964;-81
2023/07/11 08:39:59;;;;;;;;;;;;;;;27.46;48.82;101348.19;5008419;28;19913;-82
2023/07/11 08:42:32;;;;;;;;;;;;;;;27.47;48.93;101351.75;5007781;28;19964;-81
2023/07/11 08:45:05;;;;;;;;;;;;;;;27.49;48.58;101344.59;4992238;28;20016;-82
2023/07/11 08:47:32;;;;;;;;;;;;;;;27.49;48.69;101348.16;5003389;28;19913;-81
2023/07/11 08:49:59;;;;;;;;;;;;;;;27.51;48.47;101356.22;4991665;28;19913;-82
2023/07/11 08:52:24;;;;;;;;;;;;;;;27.54;48.52;101350.84;5009738;28;19920;-82
2023/07/11 08:54:53;;;;;;;;;;;;;;;27.52;48.67;101361.56;4994065;28;19913;-81
2023/07/11 08:57:18;;;;;;;;;;;;;;;27.55;48.72;101355.28;5005739;28;19949;-80
2023/07/11 09:00:02;;;;;;;;;;;;;;;27.52;48.70;101356.22;4977139;28;19917;-82
2023/07/11 09:02:46;;;;;;;;;;;;;;;27.55;48.42;101350.81;5009900;28;19913;-82
2023/07/11 09:05:14;;;;;;;;;;;;;;;27.53;48.57;101349.94;4997871;28;19925;-82
2023/07/11 09:07:43;;;;;;;;;;;;;;;27.55;48.77;101352.59;4992865;28;20365;-81
2023/07/11 09:10:27;;;;;;;;;;;;;;;27.55;48.79;101350.81;5011478;28;19968;-81
2023/07/11 09:12:56;;;;;;;;;;;;;;;27.57;48.72;101342.75;5007327;28;19920;-81
2023/07/11 09:15:22;;;;;;;;;;;;;;;27.59;48.77;101351.69;5009125;28;19968;-81
2023/07/11 09:17:48;;;;;;;;;;;;;;;27.60;48.76;101356.13;5003406;28;19913;-81
2023/07/11 09:20:25;;;;;;;;;;;;;;;27.60;48.79;101354.38;4991009;28;20315;-81
2023/07/11 09:23:06;;;;;;;;;;;;;;;27.64;48.70;101363.25;4992087;28;19957;-81
2023/07/11 09:25:36;;;;;;;;;;;;;;;27.64;48.51;101360.59;4996461;28;20507;-81
2023/07/11 09:28:05;;;;;;;;;;;;;;;27.64;48.64;101363.25;4992818;28;19948;-81
2023/07/11 09:30:40;;;;;;;;;;;;;;;27.65;48.68;101361.50;4990002;28;19980;-81
2023/07/11 09:33:17;;;;;;;;;;;;;;;27.65;48.78;101359.69;4996402;28;20012;-81
2023/07/11 09:35:43;;;;;;;;;;;;;;;27.68;48.71;101348.94;4982601;28;19914;-81
2023/07/11 09:38:32;;;;;;;;;;;;;;;27.69;48.86;101356.09;5009726;28;19918;-82
2023/07/11 09:41:16;;;;;;;;;;;;;;;27.69;48.92;101355.22;4953456;28;19914;-81
2023/07/11 09:43:42;;;;;;;;;;;;;;;27.72;48.86;101348.00;5003182;28;19922;-80
2023/07/11 09:46:14;;;;;;;;;;;;;;;27.72;49.15;101352.50;5010680;28;19920;-81
2023/07/11 09:48:41;;;;;;;;;;;;;;;27.71;48.90;101350.72;4990649;28;19966;-81
2023/07/11 09:51:07;;;;;;;;;;;;;;;27.73;48.93;101349.81;4996994;28;19975;-81
2023/07/11 09:53:32;;;;;;;;;;;;;;;27.76;48.62;101355.13;5012762;28;20386;-81
2023/07/11 09:56:01;;;;;;;;;;;;;;;27.79;48.89;101348.84;5012046;28;20386;-81
2023/07/11 09:58:28;;;;;;;;;;;;;;;27.79;48.95;101363.19;4994370;28;20021;-81
2023/07/11 10:00:55;;;;;;;;;;;;;;;27.79;48.81;101356.88;5014062;28;19948;-82
2023/07/11 10:03:21;;;;;;;;;;;;;;;27.81;48.96;101355.09;4993975;28;19919;-80
2023/07/11 10:05:48;;;;;;;;;;;;;;;27.80;48.63;101348.84;5003896;28;19917;-82
2023/07/11 10:08:19;;;;;;;;;;;;;;;27.81;48.88;101350.63;5005993;28;19914;-81
2023/07/11 10:10:46;;;;;;;;;;;;;;;27.82;49.00;101351.50;5010853;28;19914;-80
2023/07/11 10:13:11;;;;;;;;;;;;;;;27.82;48.68;101348.84;5012206;28;19977;-80
2023/07/11 10:15:37;;;;;;;;;;;;;;;27.84;48.83;101348.81;5006573;28;20020;-80
2023/07/11 10:18:03;;;;;;;;;;;;;;;27.84;48.55;101354.19;5008430;28;19953;-81
2023/07/11 10:20:30;;;;;;;;;;;;;;;27.87;49.17;101346.13;5014118;28;19932;-82
2023/07/11 10:23:03;;;;;;;;;;;;;;;27.88;48.87;101350.63;5011838;28;20008;-81
2023/07/11 10:25:28;;;;;;;;;;;;;;;27.85;49.86;101345.22;4998519;28;19921;-83
2023/07/11 10:28:00;;;;;;;;;;;;;;;27.88;49.26;101345.25;4993660;28;19923;-81
2023/07/11 10:30:30;;;;;;;;;;;;;;;27.90;49.23;101338.97;5000344;28;20378;-83
2023/07/11 10:32:58;;;;;;;;;;;;;;;27.89;49.17;101337.16;5012834;28;21165;-83
2023/07/11 10:35:24;;;;;;;;;;;;;;;27.88;49.83;101338.09;5008567;28;19917;-82
2023/07/11 10:37:58;;;;;;;;;;;;;;;27.90;49.51;101333.59;5000957;28;19921;-82
2023/07/11 10:40:28;;;;;;;;;;;;;;;27.90;49.75;101325.53;4994200;28;19924;-83
2023/07/11 10:43:09;;;;;;;;;;;;;;;27.89;49.36;101329.09;5011874;28;19918;-81
2023/07/11 10:45:36;;;;;;;;;;;;;;;27.91;49.47;101332.66;4988272;28;19972;-83
2023/07/11 10:48:04;;;;;;;;;;;;;;;27.92;49.44;101329.09;4997287;28;19913;-81
2023/07/11 10:50:46;;;;;;;;;;;;;;;27.94;49.82;101324.59;4976436;28;19914;-82
2023/07/11 10:53:24;;;;;;;;;;;;;;;27.96;49.66;101324.56;5003661;28;19913;-82
2023/07/11 10:55:52;;;;;;;;;;;;;;;27.93;50.22;101313.88;5010170;28;19913;-81
2023/07/11 10:58:17;;;;;;;;;;;;;;;27.96;49.67;101314.75;4994234;28;19956;-83
2023/07/11 11:00:48;;;;;;;;;;;;;;;27.97;50.00;101308.47;5004778;28;19952;-83
2023/07/11 11:03:14;;;;;;;;;;;;;;;27.97;49.89;101316.50;4976646;28;20517;-82
2023/07/11 11:06:00;;;;;;;;;;;;;;;27.99;50.04;101312.03;5001582;28;19914;-83
2023/07/11 11:08:33;;;;;;;;;;;;;;;27.99;49.89;101309.34;4988661;28;19913;-83
2023/07/11 11:11:12;;;;;;;;;;;;;;;28.01;50.30;101303.97;4976161;28;19917;-82
2023/07/11 11:13:40;;;;;;;;;;;;;;;28.00;50.01;101304.84;5005738;28;19925;-83
2023/07/11 11:16:14;;;;;;;;;;;;;;;28.02;50.59;101303.03;5006762;28;19913;-84
2023/07/11 11:19:02;;;;;;;;;;;;;;;28.03;50.15;101304.84;5004018;28;20378;-84
2023/07/11 11:21:30;;;;;;;;;;;;;;;28.04;49.57;101306.59;4988936;28;20315;-85
2023/07/11 11:24:14;;;;;;;;;;;;;;;28.06;49.91;101306.59;5006354;28;19940;-84
2023/07/11 11:26:59;;;;;;;;;;;;;;;28.08;49.76;101302.97;5009948;28;19949;-83
2023/07/11 11:29:34;;;;;;;;;;;;;;;28.08;49.51;101296.72;5002450;28;20058;-83
2023/07/11 11:32:08;;;;;;;;;;;;;;;28.07;50.25;101298.53;4994996;28;19920;-83
2023/07/11 11:34:49;;;;;;;;;;;;;;;28.09;50.25;101299.41;4996421;28;20004;-83
2023/07/11 11:37:30;;;;;;;;;;;;;;;28.12;49.62;101296.69;5011961;28;19917;-83
2023/07/11 11:40:01;;;;;;;;;;;;;;;28.13;49.62;101293.09;5007552;28;19980;-84
2023/07/11 11:42:28;;;;;;;;;;;;;;;28.14;49.59;101296.66;5011710;28;19979;-83
2023/07/11 11:44:58;;;;;;;;;;;;;;;28.16;49.54;101290.38;5008026;28;19918;-83
2023/07/11 11:47:48;;;;;;;;;;;;;;;28.17;49.58;101294.84;5009130;28;19952;-83
2023/07/11 11:50:32;;;;;;;;;;;;;;;28.17;49.65;101292.16;4994997;28;19940;-83
2023/07/11 11:53:22;;;;;;;;;;;;;;;28.15;49.59;101285.00;5007913;28;20361;-82
2023/07/11 11:56:07;;;;;;;;;;;;;;;28.16;49.43;101290.38;4990056;28;19956;-83
2023/07/11 11:58:39;;;;;;;;;;;;;;;28.17;49.22;101292.16;5012624;28;19924;-82
2023/07/11 12:01:04;;;;;;;;;;;;;;;28.20;49.73;101286.75;4974628;28;19962;-82
2023/07/11 12:03:42;;;;;;;;;;;;;;;28.21;49.60;101288.53;4997785;28;20025;-82
2023/07/11 12:06:34;;;;;;;;;;;;;;;28.21;49.56;101287.63;4975478;28;19914;-82
2023/07/11 12:09:21;;;;;;;;;;;;;;;28.26;49.41;101284.88;4994722;28;19940;-81
2023/07/11 12:12:12;;;;;;;;;;;;;;;28.25;49.50;101284.00;4995141;28;19920;-82
2023/07/11 12:15:03;;;;;;;;;;;;;;;28.26;49.21;101285.81;4932576;29;19922;-82
2023/07/11 12:17:29;;;;;;;;;;;;;;;28.26;49.49;101282.19;5000864;28;19969;-86
2023/07/11 12:20:33;;;;;;;;;;;;;;;28.25;49.50;101267.88;5009421;28;20516;-82
2023/07/11 12:23:01;;;;;;;;;;;;;;;28.27;49.51;101265.19;4984843;28;19921;-82
2023/07/11 12:25:28;;;;;;;;;;;;;;;28.28;49.53;101257.13;4999031;28;19967;-83
2023/07/11 12:27:53;;;;;;;;;;;;;;;28.28;49.50;101261.59;5018777;28;20378;-82
2023/07/11 12:30:40;;;;;;;;;;;;;;;28.29;49.60;101256.22;5022344;28;20063;-82
2023/07/11 12:33:24;;;;;;;;;;;;;;;28.29;49.58;101248.16;5014334;28;19918;-82
2023/07/11 12:36:03;;;;;;;;;;;;;;;28.30;49.30;101247.25;5023684;28;19967;-82
2023/07/11 12:38:31;;;;;;;;;;;;;;;28.32;49.88;101250.81;4995242;28;19928;-82
2023/07/11 12:41:00;;;;;;;;;;;;;;;28.33;49.53;101255.25;5026442;28;19940;-83
2023/07/11 12:43:29;;;;;;;;;;;;;;;28.35;49.57;101253.44;5030020;28;20374;-83
2023/07/11 12:45:55;;;;;;;;;;;;;;;28.32;49.58;101242.75;5005686;28;19940;-84
2023/07/11 12:48:28;;;;;;;;;;;;;;;28.34;49.56;101240.94;5011396;28;20011;-84
2023/07/11 12:50:54;;;;;;;;;;;;;;;28.37;49.56;101248.06;5017199;28;20481;-83
2023/07/11 12:53:20;;;;;;;;;;;;;;;28.37;49.39;101242.69;5023665;28;20004;-83
2023/07/11 12:55:46;;;;;;;;;;;;;;;28.36;49.44;101244.50;5026879;28;19948;-82
2023/07/11 12:58:25;;;;;;;;;;;;;;;28.36;49.43;101248.97;5015522;28;19917;-83
2023/07/11 13:00:51;;;;;;;;;;;;;;;28.37;49.42;101240.88;5010895;28;20818;-84
2023/07/11 13:03:23;;;;;;;;;;;;;;;28.38;49.41;101233.72;5004428;28;19921;-85
2023/07/11 13:05:49;;;;;;;;;;;;;;;28.40;49.42;101239.97;5017460;28;19924;-85